sensor_id;sensor_type;location;lat;lon;timestamp;pressure;altitude;pressure_sealevel;temperature;humidity
72055;BME280;59936;51.490;5.436;2023-09-19T00:00:46;100645.06;;;15.56;75.42
72055;BME280;59936;51.490;5.436;2023-09-19T00:05:41;100651.38;;;15.28;76.29
72055;BME280;59936;51.490;5.436;2023-09-19T00:08:10;100648.72;;;15.35;75.56
72055;BME280;59936;51.490;5.436;2023-09-19T00:10:39;100662.84;;;15.37;75.42
72055;BME280;59936;51.490;5.436;2023-09-19T00:13:08;100663.25;;;15.34;75.56
72055;BME280;59936;51.490;5.436;2023-09-19T00:15:46;100654.53;;;15.32;75.25
72055;BME280;59936;51.490;5.436;2023-09-19T00:18:16;100656.38;;;15.31;75.19
72055;BME280;59936;51.490;5.436;2023-09-19T00:20:46;100669.03;;;15.24;75.99
72055;BME280;59936;51.490;5.436;2023-09-19T00:23:14;100665.72;;;15.22;75.74
72055;BME280;59936;51.490;5.436;2023-09-19T00:25:43;100684.41;;;15.24;76.05
72055;BME280;59936;51.490;5.436;2023-09-19T00:28:12;100684.41;;;15.24;76.05
72055;BME280;59936;51.490;5.436;2023-09-19T00:30:42;100682.94;;;15.21;75.76
72055;BME280;59936;51.490;5.436;2023-09-19T00:33:11;100678.97;;;15.17;76.41
72055;BME280;59936;51.490;5.436;2023-09-19T00:35:49;100689.56;;;15.19;75.87
72055;BME280;59936;51.490;5.436;2023-09-19T00:38:22;100693.31;;;15.18;76.04
72055;BME280;59936;51.490;5.436;2023-09-19T00:40:51;100693.31;;;15.18;75.80
72055;BME280;59936;51.490;5.436;2023-09-19T00:43:22;100697.28;;;15.22;75.61
72055;BME280;59936;51.490;5.436;2023-09-19T00:45:53;100701.41;;;15.18;75.88
72055;BME280;59936;51.490;5.436;2023-09-19T00:48:24;100700.75;;;15.16;75.71
72055;BME280;59936;51.490;5.436;2023-09-19T00:50:54;100702.59;;;15.09;76.06
72055;BME280;59936;51.490;5.436;2023-09-19T00:53:25;100702.97;;;15.05;76.45
72055;BME280;59936;51.490;5.436;2023-09-19T00:55:55;100703.16;;;15.04;76.38
72055;BME280;59936;51.490;5.436;2023-09-19T00:58:23;100709.22;;;15.06;75.92
72055;BME280;59936;51.490;5.436;2023-09-19T01:00:52;100715.25;;;15.08;75.80
72055;BME280;59936;51.490;5.436;2023-09-19T01:03:22;100729.13;;;15.05;75.80
72055;BME280;59936;51.490;5.436;2023-09-19T01:05:51;100723.31;;;15.01;76.08
72055;BME280;59936;51.490;5.436;2023-09-19T01:08:19;100734.13;;;15.01;76.01
72055;BME280;59936;51.490;5.436;2023-09-19T01:11:33;100740.34;;;15.02;75.67
72055;BME280;59936;51.490;5.436;2023-09-19T01:14:20;100740.34;;;15.02;75.67
72055;BME280;59936;51.490;5.436;2023-09-19T01:20:17;100742.50;;;14.85;76.09
72055;BME280;59936;51.490;5.436;2023-09-19T01:23:02;100731.31;;;14.88;75.85
72055;BME280;59936;51.490;5.436;2023-09-19T01:26:07;100744.59;;;14.90;75.42
72055;BME280;59936;51.490;5.436;2023-09-19T01:31:51;100740.50;;;14.94;75.04
72055;BME280;59936;51.490;5.436;2023-09-19T01:34:21;100740.28;;;14.95;74.91
72055;BME280;59936;51.490;5.436;2023-09-19T01:36:49;100748.34;;;14.89;75.22
72055;BME280;59936;51.490;5.436;2023-09-19T01:39:18;100748.34;;;14.89;75.22
72055;BME280;59936;51.490;5.436;2023-09-19T01:42:00;100752.91;;;14.88;74.98
72055;BME280;59936;51.490;5.436;2023-09-19T01:47:34;100754.94;;;14.86;74.97
72055;BME280;59936;51.490;5.436;2023-09-19T01:53:04;100755.97;;;14.85;74.88
72055;BME280;59936;51.490;5.436;2023-09-19T01:55:37;100759.91;;;14.83;74.80
72055;BME280;59936;51.490;5.436;2023-09-19T01:58:27;100757.84;;;14.85;74.66
72055;BME280;59936;51.490;5.436;2023-09-19T02:01:03;100748.91;;;14.84;74.48
72055;BME280;59936;51.490;5.436;2023-09-19T02:03:34;100755.97;;;14.85;74.51
72055;BME280;59936;51.490;5.436;2023-09-19T02:06:04;100755.97;;;14.85;74.42
72055;BME280;59936;51.490;5.436;2023-09-19T02:08:33;100758.47;;;14.87;74.45
72055;BME280;59936;51.490;5.436;2023-09-19T02:11:02;100747.25;;;14.83;74.32
72055;BME280;59936;51.490;5.436;2023-09-19T02:13:30;100750.56;;;14.79;74.36
72055;BME280;59936;51.490;5.436;2023-09-19T02:15:59;100750.56;;;14.79;74.36
72055;BME280;59936;51.490;5.436;2023-09-19T02:18:28;100757.19;;;14.76;74.29
72055;BME280;59936;51.490;5.436;2023-09-19T02:20:57;100761.53;;;14.77;74.06
72055;BME280;59936;51.490;5.436;2023-09-19T02:23:25;100761.53;;;14.77;74.06
72055;BME280;59936;51.490;5.436;2023-09-19T02:25:54;100756.72;;;14.73;73.99
72055;BME280;59936;51.490;5.436;2023-09-19T02:28:23;100747.31;;;14.68;73.94
72055;BME280;59936;51.490;5.436;2023-09-19T02:30:51;100767.88;;;14.69;73.72
72055;BME280;59936;51.490;5.436;2023-09-19T02:33:20;100767.88;;;14.69;73.72
72055;BME280;59936;51.490;5.436;2023-09-19T02:35:48;100762.41;;;14.63;73.68
72055;BME280;59936;51.490;5.436;2023-09-19T02:38:17;100769.84;;;14.61;73.39
72055;BME280;59936;51.490;5.436;2023-09-19T02:40:46;100769.84;;;14.61;73.39
72055;BME280;59936;51.490;5.436;2023-09-19T02:43:14;100764.06;;;14.57;73.44
72055;BME280;59936;51.490;5.436;2023-09-19T02:45:43;100762.13;;;14.51;73.46
72055;BME280;59936;51.490;5.436;2023-09-19T02:48:12;100762.13;;;14.51;73.46
72055;BME280;59936;51.490;5.436;2023-09-19T02:50:40;100767.25;;;14.46;73.37
72055;BME280;59936;51.490;5.436;2023-09-19T02:53:09;100770.78;;;14.47;73.26
72055;BME280;59936;51.490;5.436;2023-09-19T02:55:38;100770.78;;;14.47;73.26
72055;BME280;59936;51.490;5.436;2023-09-19T02:58:07;100769.03;;;14.39;73.21
72055;BME280;59936;51.490;5.436;2023-09-19T03:00:36;100772.34;;;14.34;73.22
72055;BME280;59936;51.490;5.436;2023-09-19T03:03:05;100767.97;;;14.33;73.25
72055;BME280;59936;51.490;5.436;2023-09-19T03:05:34;100773.75;;;14.30;73.27
72055;BME280;59936;51.490;5.436;2023-09-19T03:08:03;100769.38;;;14.29;73.26
72055;BME280;59936;51.490;5.436;2023-09-19T03:10:32;100773.28;;;14.27;73.18
72055;BME280;59936;51.490;5.436;2023-09-19T03:13:00;100774.31;;;14.26;73.21
72055;BME280;59936;51.490;5.436;2023-09-19T03:15:29;100770.78;;;14.25;73.23
72055;BME280;59936;51.490;5.436;2023-09-19T03:17:57;100770.13;;;14.23;73.17
72055;BME280;59936;51.490;5.436;2023-09-19T03:20:26;100778.41;;;14.22;73.20
72055;BME280;59936;51.490;5.436;2023-09-19T03:22:54;100769.22;;;14.16;73.18
72055;BME280;59936;51.490;5.436;2023-09-19T03:25:23;100777.78;;;14.20;73.37
72055;BME280;59936;51.490;5.436;2023-09-19T03:27:51;100777.78;;;14.20;73.37
72055;BME280;59936;51.490;5.436;2023-09-19T03:30:20;100775.66;;;14.15;73.24
72055;BME280;59936;51.490;5.436;2023-09-19T03:32:49;100772.31;;;14.13;73.23
72055;BME280;59936;51.490;5.436;2023-09-19T03:35:18;100771.09;;;14.16;73.17
72055;BME280;59936;51.490;5.436;2023-09-19T03:37:46;100774.88;;;14.21;73.17
72055;BME280;59936;51.490;5.436;2023-09-19T03:40:15;100774.88;;;14.21;73.17
72055;BME280;59936;51.490;5.436;2023-09-19T03:42:43;100769.31;;;14.23;73.04
72055;BME280;59936;51.490;5.436;2023-09-19T03:45:12;100764.75;;;14.23;73.04
72055;BME280;59936;51.490;5.436;2023-09-19T03:47:41;100765.00;;;14.28;72.85
72055;BME280;59936;51.490;5.436;2023-09-19T03:50:10;100771.69;;;14.32;72.87
72055;BME280;59936;51.490;5.436;2023-09-19T03:52:38;100762.97;;;14.30;72.87
72055;BME280;59936;51.490;5.436;2023-09-19T03:55:07;100762.97;;;14.30;72.87
72055;BME280;59936;51.490;5.436;2023-09-19T03:57:36;100759.06;;;14.33;72.87
72055;BME280;59936;51.490;5.436;2023-09-19T04:00:06;100758.16;;;14.26;72.99
72055;BME280;59936;51.490;5.436;2023-09-19T04:02:35;100768.44;;;14.37;73.08
72055;BME280;59936;51.490;5.436;2023-09-19T04:05:04;100768.44;;;14.37;73.08
72055;BME280;59936;51.490;5.436;2023-09-19T04:07:32;100762.19;;;14.36;73.02
72055;BME280;59936;51.490;5.436;2023-09-19T04:10:02;100764.69;;;14.38;73.03
72055;BME280;59936;51.490;5.436;2023-09-19T04:12:30;100762.63;;;14.40;72.97
72055;BME280;59936;51.490;5.436;2023-09-19T04:14:59;100760.56;;;14.42;72.99
72055;BME280;59936;51.490;5.436;2023-09-19T04:17:28;100757.88;;;14.42;72.95
72055;BME280;59936;51.490;5.436;2023-09-19T04:19:56;100757.22;;;14.40;73.04
72055;BME280;59936;51.490;5.436;2023-09-19T04:22:25;100764.47;;;14.40;73.08
72055;BME280;59936;51.490;5.436;2023-09-19T04:24:54;100766.78;;;14.43;72.99
72055;BME280;59936;51.490;5.436;2023-09-19T04:27:22;100787.34;;;14.44;73.03
72055;BME280;59936;51.490;5.436;2023-09-19T04:29:51;100787.34;;;14.44;73.03
72055;BME280;59936;51.490;5.436;2023-09-19T04:32:19;100790.03;;;14.44;73.08
72055;BME280;59936;51.490;5.436;2023-09-19T04:34:48;100796.53;;;14.49;73.03
72055;BME280;59936;51.490;5.436;2023-09-19T04:37:17;100796.53;;;14.49;73.03
72055;BME280;59936;51.490;5.436;2023-09-19T04:39:45;100791.97;;;14.50;73.05
72055;BME280;59936;51.490;5.436;2023-09-19T04:42:14;100819.00;;;14.56;73.23
72055;BME280;59936;51.490;5.436;2023-09-19T04:44:42;100818.41;;;14.61;73.24
72055;BME280;59936;51.490;5.436;2023-09-19T04:47:11;100818.41;;;14.61;73.24
72055;BME280;59936;51.490;5.436;2023-09-19T04:49:39;100825.34;;;14.70;73.41
72055;BME280;59936;51.490;5.436;2023-09-19T04:52:08;100838.09;;;14.76;73.27
72055;BME280;59936;51.490;5.436;2023-09-19T04:54:37;100838.09;;;14.76;73.27
72055;BME280;59936;51.490;5.436;2023-09-19T04:57:08;100838.75;;;14.78;73.21
72055;BME280;59936;51.490;5.436;2023-09-19T04:59:42;100840.84;;;14.83;73.07
72055;BME280;59936;51.490;5.436;2023-09-19T05:02:10;100840.84;;;14.83;73.06
72055;BME280;59936;51.490;5.436;2023-09-19T05:04:39;100842.50;;;14.84;73.11
72055;BME280;59936;51.490;5.436;2023-09-19T05:07:07;100842.50;;;14.84;73.11
72055;BME280;59936;51.490;5.436;2023-09-19T05:09:36;100841.44;;;14.78;72.99
72055;BME280;59936;51.490;5.436;2023-09-19T05:12:05;100841.44;;;14.78;72.99
72055;BME280;59936;51.490;5.436;2023-09-19T05:14:33;100833.09;;;14.73;73.01
72055;BME280;59936;51.490;5.436;2023-09-19T05:17:02;100843.88;;;14.73;73.09
72055;BME280;59936;51.490;5.436;2023-09-19T05:19:31;100847.59;;;14.72;73.08
72055;BME280;59936;51.490;5.436;2023-09-19T05:21:59;100842.22;;;14.72;73.03
72055;BME280;59936;51.490;5.436;2023-09-19T05:24:28;100845.56;;;14.74;72.81
72055;BME280;59936;51.490;5.436;2023-09-19T05:26:56;100845.56;;;14.74;72.81
72055;BME280;59936;51.490;5.436;2023-09-19T05:29:25;100851.97;;;14.73;73.23
72055;BME280;59936;51.490;5.436;2023-09-19T05:31:53;100847.22;;;14.75;73.20
72055;BME280;59936;51.490;5.436;2023-09-19T05:34:22;100851.41;;;14.78;73.08
72055;BME280;59936;51.490;5.436;2023-09-19T05:36:50;100851.41;;;14.78;73.08
72055;BME280;59936;51.490;5.436;2023-09-19T05:39:19;100854.09;;;14.78;73.26
72055;BME280;59936;51.490;5.436;2023-09-19T05:41:48;100852.03;;;14.80;73.29
72055;BME280;59936;51.490;5.436;2023-09-19T05:44:16;100853.06;;;14.79;73.51
72055;BME280;59936;51.490;5.436;2023-09-19T05:46:45;100853.06;;;14.79;73.51
72055;BME280;59936;51.490;5.436;2023-09-19T05:49:14;100850.19;;;14.80;73.29
72055;BME280;59936;51.490;5.436;2023-09-19T05:51:42;100848.50;;;14.79;73.37
72055;BME280;59936;51.490;5.436;2023-09-19T05:54:11;100846.66;;;14.80;73.51
72055;BME280;59936;51.490;5.436;2023-09-19T05:56:39;100852.06;;;14.86;73.46
72055;BME280;59936;51.490;5.436;2023-09-19T05:59:08;100852.06;;;14.86;73.46
72055;BME280;59936;51.490;5.436;2023-09-19T06:01:37;100832.16;;;14.87;73.56
72055;BME280;59936;51.490;5.436;2023-09-19T06:04:05;100839.41;;;14.87;73.78
72055;BME280;59936;51.490;5.436;2023-09-19T06:06:34;100839.41;;;14.87;73.78
72055;BME280;59936;51.490;5.436;2023-09-19T06:09:03;100843.78;;;14.88;73.65
72055;BME280;59936;51.490;5.436;2023-09-19T06:11:31;100840.50;;;14.92;73.50
72055;BME280;59936;51.490;5.436;2023-09-19T06:14:01;100852.78;;;14.95;73.46
72055;BME280;59936;51.490;5.436;2023-09-19T06:16:30;100850.94;;;14.95;73.56
72055;BME280;59936;51.490;5.436;2023-09-19T06:18:59;100851.75;;;14.96;73.65
72055;BME280;59936;51.490;5.436;2023-09-19T06:21:28;100849.09;;;15.02;73.49
72055;BME280;59936;51.490;5.436;2023-09-19T06:23:56;100857.59;;;14.99;73.80
72055;BME280;59936;51.490;5.436;2023-09-19T06:26:25;100870.50;;;15.04;74.01
72055;BME280;59936;51.490;5.436;2023-09-19T06:28:53;100857.63;;;15.06;73.82
72055;BME280;59936;51.490;5.436;2023-09-19T06:31:22;100857.63;;;15.06;73.82
72055;BME280;59936;51.490;5.436;2023-09-19T06:33:51;100878.47;;;15.12;73.78
72055;BME280;59936;51.490;5.436;2023-09-19T06:36:19;100871.66;;;15.16;73.87
72055;BME280;59936;51.490;5.436;2023-09-19T06:38:48;100883.72;;;15.20;73.75
72055;BME280;59936;51.490;5.436;2023-09-19T06:41:17;100883.72;;;15.20;73.75
72055;BME280;59936;51.490;5.436;2023-09-19T06:43:46;100883.53;;;15.22;73.69
72055;BME280;59936;51.490;5.436;2023-09-19T06:46:14;100878.34;;;15.27;73.66
72055;BME280;59936;51.490;5.436;2023-09-19T06:48:43;100877.78;;;15.31;73.64
72055;BME280;59936;51.490;5.436;2023-09-19T06:51:11;100878.09;;;15.43;73.33
72055;BME280;59936;51.490;5.436;2023-09-19T06:53:40;100890.19;;;15.54;73.28
72055;BME280;59936;51.490;5.436;2023-09-19T06:56:09;100895.25;;;15.63;73.21
72055;BME280;59936;51.490;5.436;2023-09-19T06:58:37;100895.25;;;15.63;73.21
72055;BME280;59936;51.490;5.436;2023-09-19T07:01:06;100892.44;;;15.78;73.26
72055;BME280;59936;51.490;5.436;2023-09-19T07:03:34;100892.44;;;15.78;73.26
72055;BME280;59936;51.490;5.436;2023-09-19T07:06:03;100889.31;;;15.81;73.06
72055;BME280;59936;51.490;5.436;2023-09-19T07:08:32;100888.00;;;15.70;73.27
72055;BME280;59936;51.490;5.436;2023-09-19T07:11:00;100894.88;;;15.73;73.48
72055;BME280;59936;51.490;5.436;2023-09-19T07:13:29;100886.13;;;15.71;73.66
72055;BME280;59936;51.490;5.436;2023-09-19T07:15:58;100890.75;;;15.77;73.67
72055;BME280;59936;51.490;5.436;2023-09-19T07:18:27;100893.50;;;15.84;73.71
72055;BME280;59936;51.490;5.436;2023-09-19T07:20:58;100901.47;;;15.92;73.55
72055;BME280;59936;51.490;5.436;2023-09-19T07:23:27;100911.22;;;16.27;72.66
72055;BME280;59936;51.490;5.436;2023-09-19T07:25:59;100911.22;;;16.27;72.66
72055;BME280;59936;51.490;5.436;2023-09-19T07:28:27;100900.41;;;16.34;72.89
72055;BME280;59936;51.490;5.436;2023-09-19T07:30:56;100900.41;;;16.34;72.89
72055;BME280;59936;51.490;5.436;2023-09-19T07:33:24;100884.81;;;16.29;73.00
72055;BME280;59936;51.490;5.436;2023-09-19T07:35:53;100890.75;;;16.86;71.79
72055;BME280;59936;51.490;5.436;2023-09-19T07:38:21;100890.75;;;16.86;71.79
72055;BME280;59936;51.490;5.436;2023-09-19T07:40:50;100888.28;;;17.50;69.30
72055;BME280;59936;51.490;5.436;2023-09-19T07:43:18;100881.78;;;17.77;68.86
72055;BME280;59936;51.490;5.436;2023-09-19T07:45:47;100881.78;;;17.77;68.86
72055;BME280;59936;51.490;5.436;2023-09-19T07:48:16;100885.84;;;18.06;67.87
72055;BME280;59936;51.490;5.436;2023-09-19T07:50:44;100890.63;;;18.18;67.95
72055;BME280;59936;51.490;5.436;2023-09-19T07:53:13;100893.25;;;18.37;67.10
72055;BME280;59936;51.490;5.436;2023-09-19T07:55:41;100889.41;;;18.52;67.47
72055;BME280;59936;51.490;5.436;2023-09-19T07:58:10;100889.41;;;18.52;67.47
72055;BME280;59936;51.490;5.436;2023-09-19T08:00:38;100896.69;;;18.58;67.47
72055;BME280;59936;51.490;5.436;2023-09-19T08:03:07;100896.69;;;18.58;67.47
72055;BME280;59936;51.490;5.436;2023-09-19T08:05:36;100893.19;;;18.82;66.71
72055;BME280;59936;51.490;5.436;2023-09-19T08:08:04;100888.31;;;18.97;65.95
72055;BME280;59936;51.490;5.436;2023-09-19T08:10:33;100899.84;;;18.86;66.17
72055;BME280;59936;51.490;5.436;2023-09-19T08:13:02;100898.94;;;18.99;66.41
72055;BME280;59936;51.490;5.436;2023-09-19T08:15:30;100900.25;;;18.52;67.47
72055;BME280;59936;51.490;5.436;2023-09-19T08:17:59;100900.25;;;18.52;67.47
72055;BME280;59936;51.490;5.436;2023-09-19T08:20:27;100911.41;;;18.37;67.98
72055;BME280;59936;51.490;5.436;2023-09-19T08:22:56;100888.38;;;18.84;66.96
72055;BME280;59936;51.490;5.436;2023-09-19T08:25:24;100897.78;;;19.38;65.36
72055;BME280;59936;51.490;5.436;2023-09-19T08:27:54;100882.63;;;19.73;64.40
72055;BME280;59936;51.490;5.436;2023-09-19T08:30:24;100892.09;;;19.64;64.60
72055;BME280;59936;51.490;5.436;2023-09-19T08:32:59;100895.28;;;19.79;64.06
72055;BME280;59936;51.490;5.436;2023-09-19T08:35:28;100897.59;;;20.01;63.49
72055;BME280;59936;51.490;5.436;2023-09-19T08:37:57;100897.44;;;20.32;62.56
72055;BME280;59936;51.490;5.436;2023-09-19T08:40:25;100902.75;;;19.91;63.35
72055;BME280;59936;51.490;5.436;2023-09-19T08:42:55;100898.66;;;20.18;63.34
72055;BME280;59936;51.490;5.436;2023-09-19T08:45:25;100896.94;;;20.54;62.07
72055;BME280;59936;51.490;5.436;2023-09-19T08:48:12;100889.91;;;20.16;63.03
72055;BME280;59936;51.490;5.436;2023-09-19T08:50:52;100902.44;;;20.17;61.82
72055;BME280;59936;51.490;5.436;2023-09-19T08:53:32;100905.31;;;20.52;62.12
72055;BME280;59936;51.490;5.436;2023-09-19T08:56:10;100897.59;;;20.01;63.05
72055;BME280;59936;51.490;5.436;2023-09-19T08:58:50;100905.00;;;20.12;63.13
72055;BME280;59936;51.490;5.436;2023-09-19T09:01:21;100901.41;;;21.08;60.31
72055;BME280;59936;51.490;5.436;2023-09-19T09:03:52;100901.41;;;21.08;60.31
72055;BME280;59936;51.490;5.436;2023-09-19T09:06:23;100885.19;;;21.48;59.58
72055;BME280;59936;51.490;5.436;2023-09-19T09:08:52;100882.03;;;21.51;59.45
72055;BME280;59936;51.490;5.436;2023-09-19T09:11:21;100900.91;;;20.99;60.63
72055;BME280;59936;51.490;5.436;2023-09-19T09:13:50;100900.91;;;20.99;60.63
72055;BME280;59936;51.490;5.436;2023-09-19T09:16:19;100882.00;;;21.28;60.04
72055;BME280;59936;51.490;5.436;2023-09-19T09:18:49;100888.72;;;21.37;59.25
72055;BME280;59936;51.490;5.436;2023-09-19T09:21:18;100888.66;;;21.67;59.13
72055;BME280;59936;51.490;5.436;2023-09-19T09:23:48;100879.84;;;22.40;57.42
72055;BME280;59936;51.490;5.436;2023-09-19T09:26:17;100891.56;;;23.47;55.83
72055;BME280;59936;51.490;5.436;2023-09-19T09:29:09;100891.56;;;23.47;55.83
72055;BME280;59936;51.490;5.436;2023-09-19T09:31:37;100891.50;;;23.59;55.32
72055;BME280;59936;51.490;5.436;2023-09-19T09:34:06;100912.06;;;23.45;55.59
72055;BME280;59936;51.490;5.436;2023-09-19T09:36:37;100895.41;;;22.68;57.07
72055;BME280;59936;51.490;5.436;2023-09-19T09:39:07;100883.88;;;22.66;57.11
72055;BME280;59936;51.490;5.436;2023-09-19T09:41:36;100881.47;;;22.01;58.08
72055;BME280;59936;51.490;5.436;2023-09-19T09:44:18;100879.25;;;21.86;57.97
72055;BME280;59936;51.490;5.436;2023-09-19T09:46:47;100868.94;;;22.28;53.49
72055;BME280;59936;51.490;5.436;2023-09-19T09:49:26;100879.75;;;22.23;56.58
72055;BME280;59936;51.490;5.436;2023-09-19T09:52:06;100880.00;;;22.33;53.12
72055;BME280;59936;51.490;5.436;2023-09-19T09:54:35;100851.56;;;22.91;53.86
72055;BME280;59936;51.490;5.436;2023-09-19T09:57:08;100872.97;;;22.66;54.99
72055;BME280;59936;51.490;5.436;2023-09-19T09:59:51;100876.25;;;22.11;56.30
72055;BME280;59936;51.490;5.436;2023-09-19T10:02:29;100876.50;;;21.98;55.03
72055;BME280;59936;51.490;5.436;2023-09-19T10:04:59;100869.97;;;22.10;56.78
72055;BME280;59936;51.490;5.436;2023-09-19T10:07:29;100878.75;;;22.52;56.00
72055;BME280;59936;51.490;5.436;2023-09-19T10:10:01;100870.25;;;22.37;55.06
72055;BME280;59936;51.490;5.436;2023-09-19T10:12:31;100874.00;;;21.96;55.57
72055;BME280;59936;51.490;5.436;2023-09-19T10:15:02;100865.81;;;22.08;56.34
72055;BME280;59936;51.490;5.436;2023-09-19T10:17:34;100876.69;;;22.60;55.35
72055;BME280;59936;51.490;5.436;2023-09-19T10:20:05;100865.47;;;22.44;55.77
72055;BME280;59936;51.490;5.436;2023-09-19T10:22:34;100872.41;;;22.35;55.06
72055;BME280;59936;51.490;5.436;2023-09-19T10:25:04;100870.81;;;22.39;55.57
72055;BME280;59936;51.490;5.436;2023-09-19T10:27:35;100849.47;;;23.48;54.28
72055;BME280;59936;51.490;5.436;2023-09-19T10:30:06;100866.13;;;23.64;52.83
72055;BME280;59936;51.490;5.436;2023-09-19T10:32:39;100866.13;;;23.64;52.83
72055;BME280;59936;51.490;5.436;2023-09-19T10:35:08;100855.72;;;23.10;53.02
72055;BME280;59936;51.490;5.436;2023-09-19T10:37:40;100865.59;;;23.45;52.54
72055;BME280;59936;51.490;5.436;2023-09-19T10:40:14;100865.59;;;23.45;52.54
72055;BME280;59936;51.490;5.436;2023-09-19T10:42:44;100870.72;;;23.41;52.81
72055;BME280;59936;51.490;5.436;2023-09-19T10:45:17;100865.34;;;24.07;52.27
72055;BME280;59936;51.490;5.436;2023-09-19T10:47:45;100859.50;;;23.60;52.16
72055;BME280;59936;51.490;5.436;2023-09-19T10:50:23;100870.56;;;23.14;53.82
72055;BME280;59936;51.490;5.436;2023-09-19T10:52:53;100874.78;;;23.39;52.31
72055;BME280;59936;51.490;5.436;2023-09-19T10:55:25;100850.94;;;23.17;52.84
72055;BME280;59936;51.490;5.436;2023-09-19T10:57:56;100848.94;;;23.30;52.59
72055;BME280;59936;51.490;5.436;2023-09-19T11:00:25;100851.69;;;23.13;53.30
72055;BME280;59936;51.490;5.436;2023-09-19T11:05:41;100855.22;;;22.51;51.76
72055;BME280;59936;51.490;5.436;2023-09-19T11:08:10;100851.44;;;22.52;52.98
72055;BME280;59936;51.490;5.436;2023-09-19T11:10:45;100854.97;;;22.81;52.78
72055;BME280;59936;51.490;5.436;2023-09-19T11:13:25;100834.25;;;22.85;52.96
72055;BME280;59936;51.490;5.436;2023-09-19T11:26:44;100816.53;;;22.88;51.38
72055;BME280;59936;51.490;5.436;2023-09-19T11:29:30;100823.75;;;22.94;51.49
72055;BME280;59936;51.490;5.436;2023-09-19T11:31:59;100820.03;;;23.17;51.24
72055;BME280;59936;51.490;5.436;2023-09-19T11:34:38;100812.47;;;23.41;48.56
72055;BME280;59936;51.490;5.436;2023-09-19T11:39:38;100805.22;;;23.51;50.13
72055;BME280;59936;51.490;5.436;2023-09-19T11:42:44;100807.78;;;23.19;49.68
72055;BME280;59936;51.490;5.436;2023-09-19T11:48:08;100810.06;;;23.44;49.56
72055;BME280;59936;51.490;5.436;2023-09-19T11:50:39;100784.81;;;23.04;50.36
72055;BME280;59936;51.490;5.436;2023-09-19T11:53:08;100783.00;;;23.48;49.86
72055;BME280;59936;51.490;5.436;2023-09-19T11:55:38;100770.81;;;23.77;49.54
72055;BME280;59936;51.490;5.436;2023-09-19T11:58:09;100773.97;;;24.13;49.41
72055;BME280;59936;51.490;5.436;2023-09-19T12:00:42;100785.19;;;23.46;48.65
72055;BME280;59936;51.490;5.436;2023-09-19T12:03:13;100785.19;;;23.46;48.65
72055;BME280;59936;51.490;5.436;2023-09-19T12:05:45;100770.66;;;22.90;50.21
72055;BME280;59936;51.490;5.436;2023-09-19T12:08:14;100775.06;;;22.74;50.68
72055;BME280;59936;51.490;5.436;2023-09-19T12:10:50;100768.34;;;22.82;50.63
72055;BME280;59936;51.490;5.436;2023-09-19T12:13:19;100788.03;;;22.84;50.60
72055;BME280;59936;51.490;5.436;2023-09-19T12:15:48;100776.47;;;22.77;49.39
72055;BME280;59936;51.490;5.436;2023-09-19T12:18:27;100762.38;;;23.02;50.70
72055;BME280;59936;51.490;5.436;2023-09-19T12:20:56;100776.09;;;23.40;47.34
72055;BME280;59936;51.490;5.436;2023-09-19T12:23:25;100774.41;;;23.17;49.74
72055;BME280;59936;51.490;5.436;2023-09-19T12:25:54;100757.09;;;22.95;49.93
72055;BME280;59936;51.490;5.436;2023-09-19T12:30:55;100779.59;;;22.52;51.41
72055;BME280;59936;51.490;5.436;2023-09-19T12:33:29;100782.72;;;22.15;51.65
72055;BME280;59936;51.490;5.436;2023-09-19T12:35:58;100795.06;;;21.78;52.39
72055;BME280;59936;51.490;5.436;2023-09-19T12:38:27;100779.69;;;21.48;52.89
72055;BME280;59936;51.490;5.436;2023-09-19T12:40:57;100797.84;;;21.31;53.20
72055;BME280;59936;51.490;5.436;2023-09-19T12:43:30;100797.25;;;21.17;53.49
72055;BME280;59936;51.490;5.436;2023-09-19T12:46:00;100777.97;;;21.07;53.38
72055;BME280;59936;51.490;5.436;2023-09-19T12:48:29;100791.59;;;21.07;54.34
72055;BME280;59936;51.490;5.436;2023-09-19T12:51:07;100791.59;;;21.07;54.34
72055;BME280;59936;51.490;5.436;2023-09-19T12:53:38;100781.38;;;21.14;53.85
72055;BME280;59936;51.490;5.436;2023-09-19T12:56:10;100791.22;;;21.15;53.93
72055;BME280;59936;51.490;5.436;2023-09-19T12:58:52;100788.34;;;21.34;53.82
72055;BME280;59936;51.490;5.436;2023-09-19T13:01:25;100769.66;;;22.46;51.42
72055;BME280;59936;51.490;5.436;2023-09-19T13:04:13;100766.19;;;22.84;51.15
72055;BME280;59936;51.490;5.436;2023-09-19T13:06:49;100771.97;;;22.87;51.26
72055;BME280;59936;51.490;5.436;2023-09-19T13:09:20;100763.97;;;23.14;50.97
72055;BME280;59936;51.490;5.436;2023-09-19T13:11:50;100764.13;;;22.74;51.92
72055;BME280;59936;51.490;5.436;2023-09-19T13:14:26;100775.47;;;22.49;52.45
72055;BME280;59936;51.490;5.436;2023-09-19T13:17:02;100766.19;;;22.50;51.21
72055;BME280;59936;51.490;5.436;2023-09-19T13:19:42;100795.75;;;22.53;52.01
72055;BME280;59936;51.490;5.436;2023-09-19T13:25:10;100786.91;;;22.06;51.45
72055;BME280;59936;51.490;5.436;2023-09-19T13:27:43;100789.47;;;21.84;53.56
72055;BME280;59936;51.490;5.436;2023-09-19T13:30:13;100779.53;;;21.78;53.78
72055;BME280;59936;51.490;5.436;2023-09-19T13:32:42;100792.84;;;21.40;54.08
72055;BME280;59936;51.490;5.436;2023-09-19T13:35:11;100792.84;;;21.40;54.08
72055;BME280;59936;51.490;5.436;2023-09-19T13:37:41;100778.31;;;21.23;54.37
72055;BME280;59936;51.490;5.436;2023-09-19T13:40:11;100781.63;;;21.13;54.74
72055;BME280;59936;51.490;5.436;2023-09-19T13:42:41;100777.47;;;21.10;55.03
72055;BME280;59936;51.490;5.436;2023-09-19T13:45:10;100789.69;;;21.20;54.91
72055;BME280;59936;51.490;5.436;2023-09-19T13:47:39;100783.06;;;21.27;54.84